Time;durP1;ratioP1;P1;durP2;ratioP2;P2;SDS_P1;SDS_P2;PMS_P1;PMS_P2;Temp;Humidity;BMP_temperature;BMP_pressure;BME280_temperature;BME280_humidity;BME280_pressure;Samples;Min_cycle;Max_cycle;Signal;HPM_P1;HPM_P2
2021/01/13 00:00:25;;;;;;;18.33;12.32;;;;;;;;;;5037420;28;20076;-80
2021/01/13 00:02:52;;;;;;;16.63;12.52;;;;;;;;;;5035549;28;20076;-80
2021/01/13 00:05:18;;;;;;;15.38;11.82;;;;;;;;;;5034705;28;20502;-80
2021/01/13 00:07:48;;;;;;;19.52;13.07;;;;;;;;;;5039516;28;20057;-81
2021/01/13 00:10:14;;;;;;;19.60;12.23;;;;;;;;;;5041399;28;20049;-80
2021/01/13 00:12:40;;;;;;;21.25;13.25;;;;;;;;;;5039347;28;20053;-80
2021/01/13 00:15:07;;;;;;;17.38;11.52;;;;;;;;;;5041251;28;20053;-80
2021/01/13 00:17:34;;;;;;;15.02;11.50;;;;;;;;;;5036978;28;20076;-81
2021/01/13 00:20:00;;;;;;;16.17;11.25;;;;;;;;;;5037539;28;20053;-80
2021/01/13 00:22:26;;;;;;;17.50;11.15;;;;;;;;;;5032278;28;20128;-81
2021/01/13 00:24:53;;;;;;;17.67;11.27;;;;;;;;;;5035197;28;20049;-81
2021/01/13 00:27:22;;;;;;;15.70;11.27;;;;;;;;;;5034044;28;20131;-79
2021/01/13 00:29:49;;;;;;;16.80;10.93;;;;;;;;;;5030084;28;20133;-82
2021/01/13 00:32:16;;;;;;;14.93;10.70;;;;;;;;;;5042517;28;20416;-82
2021/01/13 00:34:42;;;;;;;16.50;10.98;;;;;;;;;;5037710;28;20115;-82
2021/01/13 00:37:10;;;;;;;16.27;10.82;;;;;;;;;;5033964;28;21521;-83
2021/01/13 00:39:36;;;;;;;14.82;11.07;;;;;;;;;;5032049;28;20052;-82
2021/01/13 00:42:08;;;;;;;15.63;12.02;;;;;;;;;;5034214;28;20049;-83
2021/01/13 00:44:34;;;;;;;16.13;10.93;;;;;;;;;;5033918;28;20049;-83
2021/01/13 00:47:02;;;;;;;14.63;9.68;;;;;;;;;;5032590;28;20045;-83
2021/01/13 00:49:29;;;;;;;15.05;11.73;;;;;;;;;;5034397;28;20479;-81
2021/01/13 00:51:55;;;;;;;15.75;10.40;;;;;;;;;;5030925;28;20948;-83
2021/01/13 00:54:21;;;;;;;13.32;9.50;;;;;;;;;;5037507;28;20131;-82
2021/01/13 00:56:49;;;;;;;13.68;10.30;;;;;;;;;;5039727;28;20095;-81
2021/01/13 00:59:18;;;;;;;15.90;9.55;;;;;;;;;;5036681;28;20137;-82
2021/01/13 01:01:47;;;;;;;13.80;9.68;;;;;;;;;;5034742;28;20049;-86
2021/01/13 01:04:14;;;;;;;11.70;10.20;;;;;;;;;;5034184;28;20129;-84
2021/01/13 01:06:41;;;;;;;15.07;10.13;;;;;;;;;;5043260;28;20414;-84
2021/01/13 01:09:09;;;;;;;13.13;9.32;;;;;;;;;;5038238;28;20143;-82
2021/01/13 01:11:37;;;;;;;15.73;11.27;;;;;;;;;;5032124;28;20046;-82
2021/01/13 01:14:04;;;;;;;15.70;10.90;;;;;;;;;;5038306;28;20052;-82
2021/01/13 01:16:31;;;;;;;15.73;10.38;;;;;;;;;;5039378;28;20051;-83
2021/01/13 01:18:58;;;;;;;14.00;10.10;;;;;;;;;;5036786;28;20057;-82
2021/01/13 01:21:27;;;;;;;15.93;10.75;;;;;;;;;;5035701;28;20049;-81
2021/01/13 01:23:54;;;;;;;13.65;10.18;;;;;;;;;;5037995;28;20091;-83
2021/01/13 01:26:20;;;;;;;13.25;8.93;;;;;;;;;;5038259;28;20140;-80
2021/01/13 01:28:47;;;;;;;14.23;9.70;;;;;;;;;;5036923;28;20049;-81
2021/01/13 01:31:13;;;;;;;11.68;8.57;;;;;;;;;;5037294;28;20076;-82
2021/01/13 01:33:43;;;;;;;20.92;9.82;;;;;;;;;;5040595;28;20057;-86
2021/01/13 01:36:09;;;;;;;15.15;9.60;;;;;;;;;;5034886;28;20067;-83
2021/01/13 01:38:36;;;;;;;14.18;9.77;;;;;;;;;;5038787;28;20049;-84
2021/01/13 01:41:07;;;;;;;14.85;9.90;;;;;;;;;;5038712;28;20050;-86
2021/01/13 01:43:33;;;;;;;13.85;9.18;;;;;;;;;;5039742;28;20045;-87
2021/01/13 01:46:03;;;;;;;13.30;9.13;;;;;;;;;;5043406;28;20073;-85
2021/01/13 01:48:33;;;;;;;13.00;9.45;;;;;;;;;;5039304;28;20084;-87
2021/01/13 01:51:00;;;;;;;12.50;8.85;;;;;;;;;;5046332;28;20041;-84
2021/01/13 01:53:42;;;;;;;13.75;9.95;;;;;;;;;;5040513;28;20087;-84
2021/01/13 01:56:25;;;;;;;12.48;9.10;;;;;;;;;;5036134;28;20067;-84
2021/01/13 01:59:03;;;;;;;13.80;8.98;;;;;;;;;;5039501;28;20059;-85
2021/01/13 02:01:30;;;;;;;12.73;8.77;;;;;;;;;;5047111;28;20080;-89
2021/01/13 02:04:04;;;;;;;12.88;9.32;;;;;;;;;;5069876;28;20033;-92
2021/01/13 02:06:42;;;;;;;13.75;8.90;;;;;;;;;;5043038;28;20132;-87
2021/01/13 02:09:08;;;;;;;13.32;8.57;;;;;;;;;;5049734;28;20064;-84
2021/01/13 02:11:37;;;;;;;11.80;8.52;;;;;;;;;;5036794;28;20439;-84
2021/01/13 02:14:04;;;;;;;11.00;8.65;;;;;;;;;;5044973;28;20473;-83
2021/01/13 02:16:30;;;;;;;12.35;8.40;;;;;;;;;;5042746;28;20045;-84
2021/01/13 02:18:59;;;;;;;13.10;9.32;;;;;;;;;;5039907;28;20052;-78
2021/01/13 02:21:31;;;;;;;12.85;9.25;;;;;;;;;;5043417;28;20037;-82
2021/01/13 02:24:09;;;;;;;13.30;9.18;;;;;;;;;;5039497;28;21034;-80
2021/01/13 02:26:58;;;;;;;13.68;8.55;;;;;;;;;;5035485;28;20156;-82
2021/01/13 02:29:35;;;;;;;12.73;8.35;;;;;;;;;;5058834;28;20040;-80
2021/01/13 02:32:13;;;;;;;14.45;9.80;;;;;;;;;;5038472;28;20056;-80
2021/01/13 02:35:02;;;;;;;11.52;8.35;;;;;;;;;;5036026;28;20052;-79
2021/01/13 02:37:42;;;;;;;10.90;8.18;;;;;;;;;;5031097;28;20518;-79
2021/01/13 02:40:11;;;;;;;12.63;8.40;;;;;;;;;;5042304;28;20415;-80
2021/01/13 02:42:40;;;;;;;12.65;9.00;;;;;;;;;;5047572;28;20051;-82
2021/01/13 02:45:10;;;;;;;11.80;8.70;;;;;;;;;;5040139;28;20383;-82
2021/01/13 02:47:50;;;;;;;16.42;8.60;;;;;;;;;;5044742;28;20045;-83
2021/01/13 02:50:21;;;;;;;12.23;9.05;;;;;;;;;;5036830;28;20057;-79
2021/01/13 02:53:08;;;;;;;14.38;9.45;;;;;;;;;;5047438;28;20132;-81
2021/01/13 02:55:57;;;;;;;12.00;8.77;;;;;;;;;;5045375;28;20047;-79
2021/01/13 02:58:26;;;;;;;11.40;8.23;;;;;;;;;;5045764;28;20136;-79
2021/01/13 03:00:54;;;;;;;15.07;9.27;;;;;;;;;;5036198;28;20139;-85
2021/01/13 03:03:21;;;;;;;11.48;8.35;;;;;;;;;;5034081;28;20085;-85
2021/01/13 03:05:49;;;;;;;12.77;8.18;;;;;;;;;;5038200;28;20489;-88
2021/01/13 03:08:16;;;;;;;13.02;9.25;;;;;;;;;;5045233;28;20462;-91
2021/01/13 03:10:47;;;;;;;12.80;8.73;;;;;;;;;;5046274;28;20053;-84
2021/01/13 03:13:13;;;;;;;11.90;8.90;;;;;;;;;;5039793;28;20045;-82
2021/01/13 03:15:43;;;;;;;12.98;8.10;;;;;;;;;;5039899;28;20073;-80
2021/01/13 03:18:28;;;;;;;14.68;8.73;;;;;;;;;;5041151;28;20087;-80
2021/01/13 03:20:54;;;;;;;11.45;8.50;;;;;;;;;;5034067;28;20060;-82
2021/01/13 03:23:22;;;;;;;12.05;8.38;;;;;;;;;;5033531;28;20052;-80
2021/01/13 03:25:59;;;;;;;12.60;8.82;;;;;;;;;;5046212;28;20410;-80
2021/01/13 03:28:37;;;;;;;12.32;7.65;;;;;;;;;;5038819;28;20041;-81
2021/01/13 03:31:04;;;;;;;11.63;7.95;;;;;;;;;;5046232;28;20056;-78
2021/01/13 03:33:59;;;;;;;10.00;7.47;;;;;;;;;;5040474;28;20045;-77
2021/01/13 03:36:40;;;;;;;11.73;8.13;;;;;;;;;;5037697;28;20038;-80
2021/01/13 03:39:07;;;;;;;10.38;8.07;;;;;;;;;;5038526;28;20071;-89
2021/01/13 03:41:48;;;;;;;12.73;8.05;;;;;;;;;;5036468;28;20133;-88
2021/01/13 03:44:15;;;;;;;10.35;8.07;;;;;;;;;;5039794;28;20456;-89
2021/01/13 03:46:41;;;;;;;9.82;7.55;;;;;;;;;;5037812;28;20068;-87
2021/01/13 03:49:10;;;;;;;11.13;7.85;;;;;;;;;;5036111;28;20071;-83
2021/01/13 03:52:07;;;;;;;10.77;7.68;;;;;;;;;;5037620;28;20060;-88
2021/01/13 03:54:35;;;;;;;12.00;7.80;;;;;;;;;;5041150;28;20136;-83
2021/01/13 03:57:01;;;;;;;11.85;8.48;;;;;;;;;;5040340;28;20041;-86
2021/01/13 03:59:37;;;;;;;12.48;8.60;;;;;;;;;;5042682;28;20063;-89
2021/01/13 04:02:13;;;;;;;12.95;8.13;;;;;;;;;;5042449;28;20316;-86
2021/01/13 04:04:54;;;;;;;10.02;7.53;;;;;;;;;;5041886;28;20129;-90
2021/01/13 04:07:24;;;;;;;13.20;8.48;;;;;;;;;;5041027;28;20171;-88
2021/01/13 04:09:51;;;;;;;;;;;;;;;;;;5051647;28;20494;-96
2021/01/13 04:12:21;;;;;;;9.52;7.30;;;;;;;;;;5050723;28;19935;-89
2021/01/13 04:14:47;;;;;;;11.50;7.70;;;;;;;;;;5039077;28;20065;-86
2021/01/13 04:17:16;;;;;;;11.25;8.32;;;;;;;;;;5041300;28;20064;-92
2021/01/13 04:19:43;;;;;;;13.20;7.93;;;;;;;;;;5042854;28;20683;-83
2021/01/13 04:22:10;;;;;;;10.88;7.55;;;;;;;;;;5037569;28;20148;-82
2021/01/13 04:24:37;;;;;;;11.90;7.95;;;;;;;;;;5035205;28;20493;-84
2021/01/13 04:27:03;;;;;;;10.88;7.63;;;;;;;;;;5036073;28;20063;-82
2021/01/13 04:29:30;;;;;;;10.73;7.15;;;;;;;;;;5038260;28;20045;-85
2021/01/13 04:31:56;;;;;;;12.27;8.30;;;;;;;;;;5036899;28;20137;-87
2021/01/13 04:34:22;;;;;;;11.30;7.60;;;;;;;;;;5042323;28;20053;-83
2021/01/13 04:36:55;;;;;;;10.27;7.90;;;;;;;;;;5034663;28;20136;-81
2021/01/13 04:39:23;;;;;;;12.32;7.57;;;;;;;;;;5034073;28;20045;-85
2021/01/13 04:41:58;;;;;;;11.73;8.25;;;;;;;;;;5035228;28;20043;-74
2021/01/13 04:44:29;;;;;;;10.30;7.03;;;;;;;;;;5039856;28;20095;-77
2021/01/13 04:47:02;;;;;;;11.02;7.72;;;;;;;;;;5033771;28;20049;-75
2021/01/13 04:49:31;;;;;;;11.77;8.10;;;;;;;;;;5035685;28;20430;-88
2021/01/13 04:52:02;;;;;;;9.95;7.65;;;;;;;;;;5037183;28;20424;-86
2021/01/13 04:54:31;;;;;;;11.82;7.75;;;;;;;;;;5040170;28;20131;-83
2021/01/13 04:57:02;;;;;;;11.13;7.57;;;;;;;;;;5039712;28;20049;-83
2021/01/13 04:59:47;;;;;;;10.57;7.38;;;;;;;;;;5037939;28;20155;-83
2021/01/13 05:02:16;;;;;;;11.10;8.05;;;;;;;;;;5042997;28;20070;-86
2021/01/13 05:04:55;;;;;;;12.40;8.93;;;;;;;;;;5041304;28;20478;-82
2021/01/13 05:07:34;;;;;;;12.77;9.20;;;;;;;;;;5034544;28;20141;-78
2021/01/13 05:10:02;;;;;;;11.30;8.65;;;;;;;;;;5040182;28;20053;-77
2021/01/13 05:12:34;;;;;;;11.48;8.38;;;;;;;;;;5039369;28;20771;-77
2021/01/13 05:15:04;;;;;;;11.13;7.88;;;;;;;;;;5042340;28;20487;-78
2021/01/13 05:17:34;;;;;;;13.77;8.10;;;;;;;;;;5040929;28;20063;-78
2021/01/13 05:20:06;;;;;;;11.70;8.27;;;;;;;;;;5043853;28;20518;-78
2021/01/13 05:22:36;;;;;;;13.20;8.70;;;;;;;;;;5040140;28;20064;-79
2021/01/13 05:25:06;;;;;;;10.73;7.90;;;;;;;;;;5038562;28;20118;-79
2021/01/13 05:27:38;;;;;;;12.52;8.10;;;;;;;;;;5040412;28;20083;-81
2021/01/13 05:30:08;;;;;;;11.30;8.43;;;;;;;;;;5043852;28;20052;-83
2021/01/13 05:32:41;;;;;;;12.55;9.02;;;;;;;;;;5045487;28;20049;-83
2021/01/13 05:35:10;;;;;;;13.65;8.93;;;;;;;;;;5041508;28;20139;-84
2021/01/13 05:37:51;;;;;;;10.60;7.57;;;;;;;;;;5038204;28;20077;-84
2021/01/13 05:40:20;;;;;;;11.43;7.35;;;;;;;;;;5037126;28;20045;-85
2021/01/13 05:42:46;;;;;;;10.93;8.18;;;;;;;;;;5038567;28;20045;-83
2021/01/13 05:45:16;;;;;;;13.70;8.73;;;;;;;;;;5040772;28;20133;-85
2021/01/13 05:47:45;;;;;;;14.73;9.43;;;;;;;;;;5042957;28;20533;-85
2021/01/13 05:50:12;;;;;;;;;;;;;;;;;;5045815;28;20052;-84
2021/01/13 05:52:41;;;;;;;9.75;6.75;;;;;;;;;;5040459;28;19920;-85
2021/01/13 05:55:07;;;;;;;10.55;8.32;;;;;;;;;;5045195;28;20048;-85
2021/01/13 05:57:37;;;;;;;11.88;7.88;;;;;;;;;;5041987;28;20055;-83
2021/01/13 06:00:04;;;;;;;13.43;8.18;;;;;;;;;;5052944;28;20053;-81
2021/01/13 06:02:49;;;;;;;13.85;8.65;;;;;;;;;;5038982;28;20133;-79
2021/01/13 06:05:16;;;;;;;12.10;8.05;;;;;;;;;;5038790;28;20578;-80
2021/01/13 06:07:45;;;;;;;11.98;7.88;;;;;;;;;;5038680;28;20046;-79
2021/01/13 06:10:12;;;;;;;12.70;7.45;;;;;;;;;;5035250;28;20049;-79
2021/01/13 06:12:41;;;;;;;11.85;7.90;;;;;;;;;;5034049;28;20056;-79
2021/01/13 06:15:12;;;;;;;12.35;7.97;;;;;;;;;;5039058;28;20053;-79
2021/01/13 06:17:40;;;;;;;11.50;7.82;;;;;;;;;;5045319;28;20521;-79
2021/01/13 06:20:08;;;;;;;13.48;8.25;;;;;;;;;;5039266;28;20072;-79
2021/01/13 06:22:34;;;;;;;13.45;8.20;;;;;;;;;;5045046;28;20055;-79
2021/01/13 06:25:04;;;;;;;11.03;8.27;;;;;;;;;;5042306;28;20059;-78
2021/01/13 06:27:43;;;;;;;10.55;7.35;;;;;;;;;;5036324;28;20132;-79
2021/01/13 06:30:24;;;;;;;9.88;7.57;;;;;;;;;;5042442;28;20045;-79
2021/01/13 06:32:50;;;;;;;11.30;8.10;;;;;;;;;;5037357;28;20072;-76
2021/01/13 06:35:36;;;;;;;9.93;7.47;;;;;;;;;;5037117;28;20053;-78
2021/01/13 06:38:07;;;;;;;10.75;8.32;;;;;;;;;;5040487;28;20048;-76
2021/01/13 06:40:33;;;;;;;10.93;7.15;;;;;;;;;;5039297;28;20529;-76
2021/01/13 06:43:17;;;;;;;9.88;7.00;;;;;;;;;;5035697;28;20499;-75
2021/01/13 06:45:47;;;;;;;12.98;7.68;;;;;;;;;;5038081;28;20045;-77
2021/01/13 06:48:18;;;;;;;11.52;8.15;;;;;;;;;;5043279;28;20053;-77
2021/01/13 06:50:44;;;;;;;11.45;7.50;;;;;;;;;;5038917;28;20056;-77
2021/01/13 06:53:11;;;;;;;10.73;7.93;;;;;;;;;;5034637;28;20041;-78
2021/01/13 06:55:38;;;;;;;11.30;7.20;;;;;;;;;;5035197;28;20052;-78
2021/01/13 06:58:12;;;;;;;10.85;7.90;;;;;;;;;;5038898;28;20049;-79
2021/01/13 07:00:38;;;;;;;12.32;7.38;;;;;;;;;;5039174;28;20049;-76
2021/01/13 07:03:20;;;;;;;12.20;7.32;;;;;;;;;;5039813;28;20049;-82
2021/01/13 07:05:48;;;;;;;10.10;7.65;;;;;;;;;;5040251;28;20056;-76
2021/01/13 07:08:14;;;;;;;12.25;7.72;;;;;;;;;;5039125;28;20132;-78
2021/01/13 07:10:44;;;;;;;10.52;7.53;;;;;;;;;;5038636;28;20060;-78
2021/01/13 07:13:11;;;;;;;10.35;7.20;;;;;;;;;;5036725;28;20130;-79
2021/01/13 07:15:39;;;;;;;14.18;7.45;;;;;;;;;;5040698;28;20054;-77
2021/01/13 07:18:05;;;;;;;11.00;7.13;;;;;;;;;;5042078;28;20061;-81
2021/01/13 07:20:41;;;;;;;11.45;7.45;;;;;;;;;;5037539;28;20072;-78
2021/01/13 07:23:10;;;;;;;10.60;7.13;;;;;;;;;;5040657;28;20045;-73
2021/01/13 07:25:49;;;;;;;11.68;7.70;;;;;;;;;;5034850;28;20045;-73
2021/01/13 07:28:33;;;;;;;11.57;7.88;;;;;;;;;;5038908;28;20049;-73
2021/01/13 07:31:02;;;;;;;11.07;6.90;;;;;;;;;;5038797;28;20064;-74
2021/01/13 07:33:32;;;;;;;12.27;7.78;;;;;;;;;;5034912;28;20045;-73
2021/01/13 07:35:59;;;;;;;9.50;6.60;;;;;;;;;;5038531;28;20068;-73
2021/01/13 07:38:31;;;;;;;11.63;7.55;;;;;;;;;;5040937;28;20103;-78
2021/01/13 07:41:02;;;;;;;10.90;7.38;;;;;;;;;;5039744;28;20099;-79
2021/01/13 07:43:51;;;;;;;12.55;8.93;;;;;;;;;;5039437;28;20557;-72
2021/01/13 07:46:28;;;;;;;12.43;8.20;;;;;;;;;;5035194;28;20108;-73
2021/01/13 07:49:18;;;;;;;12.45;8.23;;;;;;;;;;5038708;28;20104;-73
2021/01/13 07:51:48;;;;;;;13.85;9.35;;;;;;;;;;5037613;28;20649;-72
2021/01/13 07:54:27;;;;;;;15.93;9.98;;;;;;;;;;5037087;28;20052;-72
2021/01/13 07:56:56;;;;;;;17.88;9.50;;;;;;;;;;5041662;28;20130;-74
2021/01/13 07:59:28;;;;;;;22.35;10.27;;;;;;;;;;5039473;28;20045;-72
2021/01/13 08:02:15;;;;;;;17.45;10.55;;;;;;;;;;5050040;28;20049;-73
2021/01/13 08:05:01;;;;;;;19.75;12.93;;;;;;;;;;5024029;28;20076;-72
2021/01/13 08:07:50;;;;;;;20.55;11.55;;;;;;;;;;5031219;28;20151;-71
2021/01/13 08:10:29;;;;;;;25.58;14.90;;;;;;;;;;5032344;28;22799;-71
2021/01/13 08:13:14;;;;;;;21.95;13.55;;;;;;;;;;5038947;28;20488;-71
2021/01/13 08:15:49;;;;;;;21.42;13.95;;;;;;;;;;5038459;28;20056;-71
2021/01/13 08:18:37;;;;;;;20.00;13.07;;;;;;;;;;5036483;28;20050;-71
2021/01/13 08:21:15;;;;;;;20.08;13.25;;;;;;;;;;5031336;28;20160;-71
2021/01/13 08:23:51;;;;;;;;;;;;;;;;;;5033437;28;20055;-72
2021/01/13 08:26:18;;;;;;;20.52;13.05;;;;;;;;;;5037071;28;20383;-72
2021/01/13 08:28:48;;;;;;;23.15;13.13;;;;;;;;;;5034451;28;20049;-71
2021/01/13 08:31:21;;;;;;;20.27;12.85;;;;;;;;;;5037317;28;20069;-70
2021/01/13 08:34:02;;;;;;;19.05;12.75;;;;;;;;;;5036734;28;20437;-71
2021/01/13 08:36:28;;;;;;;21.92;13.90;;;;;;;;;;5041100;28;20045;-71
2021/01/13 08:39:14;;;;;;;23.58;13.00;;;;;;;;;;5040167;28;20128;-71
2021/01/13 08:41:42;;;;;;;19.48;12.30;;;;;;;;;;5038609;28;20049;-71
2021/01/13 08:44:11;;;;;;;;;;;;;;;;;;5039023;28;20161;-70
2021/01/13 08:46:38;;;;;;;18.27;12.40;;;;;;;;;;5040935;28;19990;-71
2021/01/13 08:49:06;;;;;;;16.63;11.38;;;;;;;;;;5041606;28;20490;-71
2021/01/13 08:51:33;;;;;;;21.45;12.95;;;;;;;;;;5035788;28;20417;-70
2021/01/13 08:54:21;;;;;;;20.25;12.77;;;;;;;;;;5034509;28;20059;-73
2021/01/13 08:56:59;;;;;;;19.42;11.77;;;;;;;;;;5035557;28;20041;-72
2021/01/13 08:59:33;;;;;;;19.95;11.40;;;;;;;;;;5042549;28;20128;-70
2021/01/13 09:02:02;;;;;;;19.20;12.38;;;;;;;;;;5038485;28;20132;-72
2021/01/13 09:04:38;;;;;;;19.35;11.45;;;;;;;;;;5037861;28;20049;-72
2021/01/13 09:07:14;;;;;;;15.02;10.68;;;;;;;;;;5034051;28;20063;-69
2021/01/13 09:09:42;;;;;;;20.77;11.38;;;;;;;;;;5037536;28;20518;-72
2021/01/13 09:12:28;;;;;;;22.20;12.60;;;;;;;;;;5034218;28;20060;-71
2021/01/13 09:15:06;;;;;;;27.02;14.27;;;;;;;;;;5035445;28;20045;-73
2021/01/13 09:17:36;;;;;;;25.83;14.05;;;;;;;;;;5037053;28;20688;-70
2021/01/13 09:20:03;;;;;;;29.42;14.35;;;;;;;;;;5037505;28;20052;-70
2021/01/13 09:22:47;;;;;;;29.40;12.82;;;;;;;;;;5035760;28;20049;-71
2021/01/13 09:25:33;;;;;;;23.98;12.75;;;;;;;;;;5030535;28;20066;-70
2021/01/13 09:28:17;;;;;;;19.17;12.30;;;;;;;;;;5034026;28;20422;-70
2021/01/13 09:30:44;;;;;;;23.10;12.55;;;;;;;;;;5037469;28;20057;-71
2021/01/13 09:33:14;;;;;;;23.02;11.85;;;;;;;;;;5035505;28;20085;-70
2021/01/13 09:35:47;;;;;;;20.40;11.52;;;;;;;;;;5039278;28;20053;-70
2021/01/13 09:38:25;;;;;;;20.67;13.23;;;;;;;;;;5037827;28;20045;-70
2021/01/13 09:41:01;;;;;;;21.73;11.05;;;;;;;;;;5037875;28;20041;-71
2021/01/13 09:43:27;;;;;;;22.30;11.75;;;;;;;;;;5036904;28;20072;-71
2021/01/13 09:45:58;;;;;;;18.90;12.48;;;;;;;;;;5036897;28;20051;-71
2021/01/13 09:48:29;;;;;;;17.63;11.65;;;;;;;;;;5044096;28;20392;-70
2021/01/13 09:50:57;;;;;;;17.60;11.52;;;;;;;;;;5041539;28;20132;-71
2021/01/13 09:53:27;;;;;;;21.65;12.18;;;;;;;;;;5039891;28;20143;-71
2021/01/13 09:55:53;;;;;;;20.15;12.50;;;;;;;;;;5038269;28;20136;-70
2021/01/13 09:58:30;;;;;;;16.08;10.10;;;;;;;;;;5035483;28;20050;-71
2021/01/13 10:01:00;;;;;;;22.00;11.35;;;;;;;;;;5037608;28;20509;-70
2021/01/13 10:03:30;;;;;;;18.60;10.90;;;;;;;;;;5037606;28;20141;-70
2021/01/13 10:05:56;;;;;;;17.10;11.85;;;;;;;;;;5041159;28;20041;-70
2021/01/13 10:08:31;;;;;;;19.23;10.52;;;;;;;;;;5036102;28;21964;-71
2021/01/13 10:11:01;;;;;;;15.60;10.88;;;;;;;;;;5033541;28;20045;-71
2021/01/13 10:13:31;;;;;;;19.23;10.52;;;;;;;;;;5039424;28;20061;-71
2021/01/13 10:16:01;;;;;;;15.82;10.27;;;;;;;;;;5037542;28;20755;-70
2021/01/13 10:18:27;;;;;;;;;;;;;;;;;;5040870;28;20080;-70
2021/01/13 10:20:54;;;;;;;14.95;10.55;;;;;;;;;;5036097;28;19960;-71
2021/01/13 10:23:20;;;;;;;17.00;10.27;;;;;;;;;;5041177;28;20041;-71
2021/01/13 10:25:46;;;;;;;14.45;9.80;;;;;;;;;;5038626;28;20063;-71
2021/01/13 10:28:13;;;;;;;18.88;11.70;;;;;;;;;;5039457;28;20545;-71
2021/01/13 10:30:41;;;;;;;16.10;10.52;;;;;;;;;;5040821;28;20053;-71
2021/01/13 10:33:08;;;;;;;14.15;9.32;;;;;;;;;;5035028;28;20053;-71
2021/01/13 10:35:38;;;;;;;21.92;11.25;;;;;;;;;;5038729;28;20063;-71
2021/01/13 10:38:04;;;;;;;14.65;10.05;;;;;;;;;;5033909;28;20056;-71
2021/01/13 10:40:31;;;;;;;14.00;9.88;;;;;;;;;;5040301;28;20048;-71
2021/01/13 10:42:57;;;;;;;12.98;9.90;;;;;;;;;;5033902;28;20060;-71
2021/01/13 10:45:26;;;;;;;15.53;9.43;;;;;;;;;;5032206;28;20045;-72
2021/01/13 10:48:02;;;;;;;16.02;10.40;;;;;;;;;;5041500;28;20589;-72
2021/01/13 10:50:30;;;;;;;13.68;10.13;;;;;;;;;;5039738;28;20049;-72
2021/01/13 10:52:57;;;;;;;16.35;9.85;;;;;;;;;;5044241;28;22263;-72
2021/01/13 10:55:27;;;;;;;15.27;9.80;;;;;;;;;;5039648;28;20051;-71
2021/01/13 10:57:54;;;;;;;12.52;9.45;;;;;;;;;;5043362;28;20049;-72
2021/01/13 11:00:25;;;;;;;14.98;10.18;;;;;;;;;;5040760;28;20509;-72
2021/01/13 11:02:51;;;;;;;14.63;10.05;;;;;;;;;;5035871;28;20037;-72
2021/01/13 11:05:21;;;;;;;16.92;10.13;;;;;;;;;;5032681;28;20061;-73
2021/01/13 11:07:51;;;;;;;15.15;9.93;;;;;;;;;;5034084;28;20144;-73
2021/01/13 11:10:21;;;;;;;14.23;10.15;;;;;;;;;;5034968;28;20511;-73
2021/01/13 11:12:51;;;;;;;12.85;9.65;;;;;;;;;;5039971;28;20049;-73
2021/01/13 11:15:17;;;;;;;17.00;10.02;;;;;;;;;;5039034;28;20053;-73
2021/01/13 11:17:43;;;;;;;16.58;10.50;;;;;;;;;;5037849;28;20051;-73
2021/01/13 11:20:13;;;;;;;18.70;10.77;;;;;;;;;;5038199;28;20103;-73
2021/01/13 11:22:47;;;;;;;14.70;10.05;;;;;;;;;;5030948;28;20056;-71
2021/01/13 11:25:21;;;;;;;15.90;9.88;;;;;;;;;;5037574;28;20091;-72
2021/01/13 11:27:57;;;;;;;13.68;9.27;;;;;;;;;;5041886;28;20222;-72
2021/01/13 11:30:27;;;;;;;13.10;9.25;;;;;;;;;;5039870;28;20052;-72
2021/01/13 11:32:54;;;;;;;14.05;9.15;;;;;;;;;;5031374;28;20053;-72
2021/01/13 11:35:28;;;;;;;13.88;10.30;;;;;;;;;;5031982;28;20065;-72
2021/01/13 11:38:22;;;;;;;15.25;8.75;;;;;;;;;;5034689;28;20132;-73
2021/01/13 11:40:48;;;;;;;12.93;9.10;;;;;;;;;;5030824;28;20060;-72
2021/01/13 11:43:18;;;;;;;14.18;9.15;;;;;;;;;;5036971;28;20054;-72
2021/01/13 11:46:01;;;;;;;14.85;9.45;;;;;;;;;;5036562;28;20406;-72
2021/01/13 11:48:30;;;;;;;14.95;9.90;;;;;;;;;;5037174;28;20491;-72
2021/01/13 11:51:11;;;;;;;14.75;9.43;;;;;;;;;;5035862;28;20486;-72
2021/01/13 11:53:37;;;;;;;13.90;9.90;;;;;;;;;;5035983;28;20049;-72
2021/01/13 11:56:04;;;;;;;13.85;10.15;;;;;;;;;;5035081;28;20061;-72
2021/01/13 11:58:32;;;;;;;13.65;9.32;;;;;;;;;;5042125;28;20509;-72
2021/01/13 12:01:13;;;;;;;14.98;10.10;;;;;;;;;;5030371;28;20057;-72
2021/01/13 12:03:40;;;;;;;13.15;9.07;;;;;;;;;;5040842;28;20049;-72
2021/01/13 12:06:07;;;;;;;17.15;9.70;;;;;;;;;;5034699;28;20157;-72
2021/01/13 12:08:33;;;;;;;13.32;9.43;;;;;;;;;;5034532;28;20057;-73
2021/01/13 12:11:13;;;;;;;15.15;10.15;;;;;;;;;;5039280;28;20056;-72
2021/01/13 12:13:44;;;;;;;14.52;8.88;;;;;;;;;;5036892;28;20095;-72
2021/01/13 12:16:16;;;;;;;15.68;10.00;;;;;;;;;;5037198;28;20067;-72
2021/01/13 12:18:50;;;;;;;13.82;10.13;;;;;;;;;;5041868;28;20491;-72
2021/01/13 12:21:16;;;;;;;13.50;9.40;;;;;;;;;;5040531;28;20138;-72
2021/01/13 12:23:46;;;;;;;13.55;10.13;;;;;;;;;;5034529;28;20041;-73
2021/01/13 12:26:29;;;;;;;14.88;10.13;;;;;;;;;;5029125;28;20446;-71
2021/01/13 12:29:13;;;;;;;15.52;10.93;;;;;;;;;;5038352;28;20052;-71
2021/01/13 12:31:46;;;;;;;16.00;10.88;;;;;;;;;;5040808;28;20049;-71
2021/01/13 12:34:14;;;;;;;13.98;10.50;;;;;;;;;;5036137;28;20698;-71
2021/01/13 12:36:42;;;;;;;18.63;11.30;;;;;;;;;;5038226;28;20045;-71
2021/01/13 12:39:09;;;;;;;16.08;11.55;;;;;;;;;;5031232;28;20053;-72
2021/01/13 12:41:36;;;;;;;16.50;10.88;;;;;;;;;;5034719;28;20053;-72
2021/01/13 12:44:07;;;;;;;16.58;11.30;;;;;;;;;;5038069;28;20114;-72
2021/01/13 12:46:34;;;;;;;17.65;10.90;;;;;;;;;;5038253;28;20041;-72
2021/01/13 12:49:00;;;;;;;16.13;11.90;;;;;;;;;;5040527;28;20140;-72
2021/01/13 12:51:27;;;;;;;14.77;10.98;;;;;;;;;;5035124;28;20502;-72
2021/01/13 12:53:54;;;;;;;17.17;10.52;;;;;;;;;;5030282;28;20280;-71
2021/01/13 12:56:27;;;;;;;15.07;11.00;;;;;;;;;;5036209;28;20517;-72
2021/01/13 12:58:54;;;;;;;15.68;11.68;;;;;;;;;;5057357;28;20074;-71
2021/01/13 13:01:24;;;;;;;18.60;11.50;;;;;;;;;;5034671;28;20199;-72
2021/01/13 13:03:51;;;;;;;15.77;11.57;;;;;;;;;;5037470;28;20052;-71
2021/01/13 13:06:26;;;;;;;16.17;11.00;;;;;;;;;;5034490;28;20144;-74
2021/01/13 13:08:56;;;;;;;20.75;12.32;;;;;;;;;;5036950;28;20534;-75
2021/01/13 13:11:24;;;;;;;19.73;12.07;;;;;;;;;;5038667;28;20060;-73
2021/01/13 13:13:51;;;;;;;23.23;12.38;;;;;;;;;;5033643;28;20037;-73
2021/01/13 13:16:21;;;;;;;16.60;12.20;;;;;;;;;;5041131;28;20055;-72
2021/01/13 13:18:48;;;;;;;17.52;11.90;;;;;;;;;;5036969;28;20069;-72
2021/01/13 13:21:15;;;;;;;17.52;12.27;;;;;;;;;;5039317;28;20056;-73
2021/01/13 13:23:45;;;;;;;18.15;12.73;;;;;;;;;;5033595;28;20048;-73
2021/01/13 13:26:12;;;;;;;17.80;11.93;;;;;;;;;;5041825;28;20586;-73
2021/01/13 13:28:39;;;;;;;20.23;13.55;;;;;;;;;;5043870;28;20141;-73
2021/01/13 13:31:19;;;;;;;19.33;13.48;;;;;;;;;;5036541;28;20091;-74
2021/01/13 13:33:48;;;;;;;19.95;13.98;;;;;;;;;;5039266;28;20059;-77
2021/01/13 13:36:15;;;;;;;18.45;13.45;;;;;;;;;;5034521;28;20045;-73
2021/01/13 13:38:45;;;;;;;17.92;12.65;;;;;;;;;;5040864;28;20376;-73
2021/01/13 13:41:12;;;;;;;21.23;13.40;;;;;;;;;;5041861;28;20041;-72
2021/01/13 13:43:39;;;;;;;18.85;14.18;;;;;;;;;;5040397;28;20045;-72
2021/01/13 13:46:06;;;;;;;21.10;13.80;;;;;;;;;;5040900;28;20782;-72
2021/01/13 13:48:34;;;;;;;19.88;14.10;;;;;;;;;;5038818;28;20076;-72
2021/01/13 13:51:01;;;;;;;18.73;13.30;;;;;;;;;;5039395;28;20064;-72
2021/01/13 13:53:27;;;;;;;19.60;13.65;;;;;;;;;;5041061;28;20061;-72
2021/01/13 13:55:54;;;;;;;20.35;13.90;;;;;;;;;;5033491;28;20055;-73
2021/01/13 13:58:20;;;;;;;19.75;12.57;;;;;;;;;;5040612;28;20045;-72
2021/01/13 14:00:48;;;;;;;21.77;13.10;;;;;;;;;;5041352;28;20083;-73
2021/01/13 14:03:14;;;;;;;19.83;12.38;;;;;;;;;;5041693;28;20288;-73
2021/01/13 14:05:41;;;;;;;18.88;12.68;;;;;;;;;;5045067;28;20053;-73
2021/01/13 14:08:08;;;;;;;17.92;13.32;;;;;;;;;;5038679;28;20140;-73
2021/01/13 14:10:34;;;;;;;19.02;13.13;;;;;;;;;;5038960;28;20525;-73
2021/01/13 14:13:00;;;;;;;18.90;12.90;;;;;;;;;;5043465;28;20045;-73
2021/01/13 14:15:30;;;;;;;18.63;12.43;;;;;;;;;;5043885;28;20048;-73
2021/01/13 14:17:58;;;;;;;17.60;12.02;;;;;;;;;;5044710;28;20498;-73
2021/01/13 14:20:26;;;;;;;19.30;12.50;;;;;;;;;;5040233;28;20478;-73
2021/01/13 14:23:03;;;;;;;17.80;11.98;;;;;;;;;;5041254;28;20041;-72
2021/01/13 14:25:30;;;;;;;18.17;12.45;;;;;;;;;;5042531;28;20051;-72
2021/01/13 14:27:56;;;;;;;17.83;12.20;;;;;;;;;;5038673;28;20426;-72
2021/01/13 14:30:23;;;;;;;18.70;12.27;;;;;;;;;;5041188;28;20052;-71
2021/01/13 14:32:52;;;;;;;18.73;12.25;;;;;;;;;;5038657;28;20080;-71
2021/01/13 14:35:19;;;;;;;19.10;12.52;;;;;;;;;;5040935;28;20411;-72
2021/01/13 14:37:50;;;;;;;16.30;11.20;;;;;;;;;;5037672;28;20045;-72
2021/01/13 14:40:17;;;;;;;17.05;11.52;;;;;;;;;;5033767;28;20414;-72
2021/01/13 14:42:45;;;;;;;16.02;11.18;;;;;;;;;;5039571;28;20117;-74
2021/01/13 14:45:11;;;;;;;15.60;11.65;;;;;;;;;;5040687;28;20418;-69
2021/01/13 14:47:38;;;;;;;18.73;11.52;;;;;;;;;;5039812;28;20406;-70